Time;durP1;ratioP1;P1;durP2;ratioP2;P2;SDS_P1;SDS_P2;PMS_P1;PMS_P2;Temp;Humidity;BMP_temperature;BMP_pressure;BME280_temperature;BME280_humidity;BME280_pressure;Samples;Min_cycle;Max_cycle;Signal;HPM_P1;HPM_P2
2024/02/02 00:01:37;;;;;;;13.60;2.57;;;;;;;;;;5014411;28;20545;-65
2024/02/02 00:04:04;;;;;;;9.70;2.83;;;;;;;;;;5015136;28;20449;-65
2024/02/02 00:06:31;;;;;;;10.43;2.97;;;;;;;;;;5015011;28;20238;-65
2024/02/02 00:08:58;;;;;;;13.90;4.40;;;;;;;;;;5014901;28;20223;-66
2024/02/02 00:11:25;;;;;;;13.83;2.60;;;;;;;;;;5014736;28;20225;-66
2024/02/02 00:13:52;;;;;;;18.77;4.38;;;;;;;;;;5014772;28;20968;-65
2024/02/02 00:16:20;;;;;;;14.40;3.63;;;;;;;;;;5014757;28;20730;-66
2024/02/02 00:18:47;;;;;;;12.87;3.20;;;;;;;;;;5014819;28;20452;-65
2024/02/02 00:21:14;;;;;;;15.48;3.28;;;;;;;;;;5014788;28;20481;-66
2024/02/02 00:23:41;;;;;;;17.13;3.97;;;;;;;;;;5014611;28;20297;-65
2024/02/02 00:26:08;;;;;;;19.73;5.63;;;;;;;;;;5014541;28;20477;-65
2024/02/02 00:28:35;;;;;;;14.53;3.50;;;;;;;;;;5014731;28;20556;-65
2024/02/02 00:31:02;;;;;;;11.32;3.03;;;;;;;;;;5014590;28;20492;-65
2024/02/02 00:33:31;;;;;;;14.43;4.50;;;;;;;;;;5014503;28;20559;-65
2024/02/02 00:35:59;;;;;;;11.07;4.65;;;;;;;;;;5014442;28;20516;-65
2024/02/02 00:38:26;;;;;;;21.20;3.63;;;;;;;;;;5014245;28;20230;-66
2024/02/02 00:40:53;;;;;;;8.63;2.80;;;;;;;;;;5014470;28;20524;-66
2024/02/02 00:43:20;;;;;;;12.70;2.63;;;;;;;;;;5014443;28;20531;-66
2024/02/02 00:45:47;;;;;;;8.07;2.88;;;;;;;;;;5014429;28;20278;-66
2024/02/02 00:48:14;;;;;;;12.63;3.17;;;;;;;;;;5014180;28;20192;-66
2024/02/02 00:50:42;;;;;;;13.50;2.97;;;;;;;;;;5014027;28;20569;-65
2024/02/02 00:53:09;;;;;;;11.87;3.10;;;;;;;;;;5014383;28;20450;-65
2024/02/02 00:55:36;;;;;;;10.70;3.03;;;;;;;;;;5014264;28;20446;-66
2024/02/02 00:58:03;;;;;;;11.47;3.50;;;;;;;;;;5014149;28;20549;-66
2024/02/02 01:00:30;;;;;;;11.10;3.43;;;;;;;;;;5014069;28;21001;-66
2024/02/02 01:02:57;;;;;;;16.10;2.90;;;;;;;;;;5013967;28;20446;-65
2024/02/02 01:05:24;;;;;;;11.87;2.80;;;;;;;;;;5013922;28;20549;-66
2024/02/02 01:07:52;;;;;;;9.87;3.23;;;;;;;;;;5014058;28;20446;-66
2024/02/02 01:10:19;;;;;;;15.27;3.83;;;;;;;;;;5013923;28;20924;-66
2024/02/02 01:12:46;;;;;;;15.17;4.20;;;;;;;;;;5013919;28;20878;-66
2024/02/02 01:15:14;;;;;;;15.47;3.40;;;;;;;;;;5013830;28;20791;-66
2024/02/02 01:17:45;;;;;;;16.40;4.67;;;;;;;;;;5013766;28;20450;-66
2024/02/02 01:20:13;;;;;;;9.37;2.90;;;;;;;;;;5013614;28;20461;-66
2024/02/02 01:22:40;;;;;;;11.55;2.85;;;;;;;;;;5013763;28;20524;-66
2024/02/02 01:25:09;;;;;;;14.27;3.47;;;;;;;;;;5013498;28;20202;-66
2024/02/02 01:27:36;;;;;;;14.70;3.87;;;;;;;;;;5013665;28;20195;-66
2024/02/02 01:30:03;;;;;;;19.50;4.18;;;;;;;;;;5013510;28;20556;-66
2024/02/02 01:32:30;;;;;;;9.57;3.67;;;;;;;;;;5013386;28;20234;-66
2024/02/02 01:34:57;;;;;;;13.15;2.90;;;;;;;;;;5013711;28;20473;-66
2024/02/02 01:37:24;;;;;;;13.77;3.40;;;;;;;;;;5013361;28;20191;-66
2024/02/02 01:39:51;;;;;;;15.10;3.97;;;;;;;;;;5013563;28;20619;-66
2024/02/02 01:42:19;;;;;;;7.57;3.20;;;;;;;;;;5013396;28;20446;-66
2024/02/02 01:44:46;;;;;;;11.77;4.40;;;;;;;;;;5013381;28;20533;-66
2024/02/02 01:47:13;;;;;;;14.37;4.13;;;;;;;;;;5013195;28;20457;-66
2024/02/02 01:49:40;;;;;;;15.90;3.70;;;;;;;;;;5013333;28;20446;-66
2024/02/02 01:52:08;;;;;;;14.82;5.13;;;;;;;;;;5013432;28;20449;-66
2024/02/02 01:54:34;;;;;;;14.27;3.85;;;;;;;;;;5013326;28;20627;-66
2024/02/02 01:57:01;;;;;;;13.10;3.75;;;;;;;;;;5013227;28;20222;-66
2024/02/02 01:59:30;;;;;;;10.33;3.20;;;;;;;;;;5013149;28;20191;-66
2024/02/02 02:01:57;;;;;;;10.47;3.30;;;;;;;;;;5013094;28;20946;-66
2024/02/02 02:04:24;;;;;;;15.40;4.03;;;;;;;;;;5013257;28;20442;-66
2024/02/02 02:06:51;;;;;;;12.77;3.13;;;;;;;;;;5013184;28;20754;-66
2024/02/02 02:09:18;;;;;;;17.83;4.40;;;;;;;;;;5013245;28;20810;-66
2024/02/02 02:11:45;;;;;;;15.43;3.53;;;;;;;;;;5013088;28;20485;-66
2024/02/02 02:14:12;;;;;;;11.37;3.67;;;;;;;;;;5012910;28;20965;-66
2024/02/02 02:16:42;;;;;;;16.53;3.20;;;;;;;;;;5013225;28;20548;-66
2024/02/02 02:19:13;;;;;;;16.73;4.13;;;;;;;;;;5013112;28;20496;-66
2024/02/02 02:21:42;;;;;;;15.40;3.57;;;;;;;;;;5013101;28;20485;-66
2024/02/02 02:24:08;;;;;;;11.10;4.00;;;;;;;;;;5014954;28;20875;-66
2024/02/02 02:26:35;;;;;;;18.83;4.30;;;;;;;;;;5016574;28;20488;-66
2024/02/02 02:29:03;;;;;;;12.20;3.70;;;;;;;;;;5016768;28;20942;-66
2024/02/02 02:31:30;;;;;;;15.27;3.80;;;;;;;;;;5017001;28;20486;-66
2024/02/02 02:33:57;;;;;;;19.00;4.40;;;;;;;;;;5016858;28;20458;-66
2024/02/02 02:36:24;;;;;;;14.13;4.40;;;;;;;;;;5016785;28;20516;-66
2024/02/02 02:38:52;;;;;;;11.63;4.00;;;;;;;;;;5016599;28;20532;-66
2024/02/02 02:41:19;;;;;;;15.73;4.07;;;;;;;;;;5016487;28;20533;-66
2024/02/02 02:43:46;;;;;;;15.48;4.25;;;;;;;;;;5016783;28;20450;-66
2024/02/02 02:46:13;;;;;;;10.03;3.30;;;;;;;;;;5016765;28;20555;-66
2024/02/02 02:48:40;;;;;;;16.70;3.53;;;;;;;;;;5016465;28;20460;-66
2024/02/02 02:51:07;;;;;;;14.53;3.70;;;;;;;;;;5016420;28;20569;-66
2024/02/02 02:53:34;;;;;;;14.60;3.97;;;;;;;;;;5016382;28;20452;-66
2024/02/02 02:56:03;;;;;;;15.63;4.43;;;;;;;;;;5016290;28;20528;-66
2024/02/02 02:58:30;;;;;;;18.83;4.03;;;;;;;;;;5016454;28;20478;-66
2024/02/02 03:00:57;;;;;;;18.60;3.73;;;;;;;;;;5016416;28;20446;-66
2024/02/02 03:03:24;;;;;;;13.60;3.40;;;;;;;;;;5016272;28;20545;-66
2024/02/02 03:05:51;;;;;;;15.70;4.77;;;;;;;;;;5016075;28;20462;-66
2024/02/02 03:08:18;;;;;;;10.47;3.80;;;;;;;;;;5016084;28;20885;-66
2024/02/02 03:10:45;;;;;;;20.30;4.40;;;;;;;;;;5016180;28;20557;-66
2024/02/02 03:13:13;;;;;;;18.67;5.60;;;;;;;;;;5016123;28;20460;-66
2024/02/02 03:15:40;;;;;;;9.30;3.73;;;;;;;;;;5016063;28;20894;-66
2024/02/02 03:18:07;;;;;;;17.20;4.23;;;;;;;;;;5016017;28;20453;-66
2024/02/02 03:20:34;;;;;;;12.60;4.37;;;;;;;;;;5015928;28;20446;-66
2024/02/02 03:23:01;;;;;;;13.20;3.88;;;;;;;;;;5015708;28;20442;-66
2024/02/02 03:25:28;;;;;;;10.73;3.33;;;;;;;;;;5015785;28;20215;-66
2024/02/02 03:27:55;;;;;;;19.10;4.70;;;;;;;;;;5015897;28;20558;-66
2024/02/02 03:30:23;;;;;;;15.93;4.43;;;;;;;;;;5015730;28;20548;-66
2024/02/02 03:32:50;;;;;;;14.40;3.93;;;;;;;;;;5015679;28;20882;-66
2024/02/02 03:35:17;;;;;;;7.00;3.67;;;;;;;;;;5014426;28;20540;-66
2024/02/02 03:37:44;;;;;;;16.17;4.60;;;;;;;;;;5015472;28;20536;-66
2024/02/02 03:40:12;;;;;;;17.53;4.40;;;;;;;;;;5015684;28;20446;-66
2024/02/02 03:42:39;;;;;;;18.40;5.23;;;;;;;;;;5015519;28;20450;-66
2024/02/02 03:45:07;;;;;;;11.13;5.10;;;;;;;;;;5015495;28;20532;-66
2024/02/02 03:47:35;;;;;;;20.17;6.30;;;;;;;;;;5015289;28;20534;-66
2024/02/02 03:50:02;;;;;;;16.90;4.57;;;;;;;;;;5015195;28;20534;-66
2024/02/02 03:52:29;;;;;;;16.33;5.27;;;;;;;;;;5015383;28;20486;-66
2024/02/02 03:54:56;;;;;;;13.73;5.27;;;;;;;;;;5015380;28;20482;-66
2024/02/02 03:57:23;;;;;;;17.87;5.90;;;;;;;;;;5015288;28;20478;-66
2024/02/02 03:59:50;;;;;;;15.87;6.37;;;;;;;;;;5015273;28;20862;-66
2024/02/02 04:02:17;;;;;;;18.07;5.43;;;;;;;;;;5015108;28;20453;-66
2024/02/02 04:04:45;;;;;;;11.90;5.30;;;;;;;;;;5015041;28;20457;-66
2024/02/02 04:07:12;;;;;;;23.50;6.27;;;;;;;;;;5015069;28;20814;-66
2024/02/02 04:09:39;;;;;;;17.53;5.20;;;;;;;;;;5015021;28;20450;-66
2024/02/02 04:12:06;;;;;;;18.87;6.00;;;;;;;;;;5014909;28;20492;-66
2024/02/02 04:14:33;;;;;;;18.07;6.17;;;;;;;;;;5014842;28;20477;-66
2024/02/02 04:17:00;;;;;;;17.80;6.13;;;;;;;;;;5014701;28;20479;-66
2024/02/02 04:19:27;;;;;;;12.60;5.53;;;;;;;;;;5014981;28;20537;-66
2024/02/02 04:21:55;;;;;;;23.17;6.27;;;;;;;;;;5014889;28;20536;-66
2024/02/02 04:24:22;;;;;;;20.50;5.40;;;;;;;;;;5014766;28;20446;-66
2024/02/02 04:26:49;;;;;;;12.67;4.70;;;;;;;;;;5014494;28;20470;-66
2024/02/02 04:29:16;;;;;;;11.63;5.10;;;;;;;;;;5014637;28;20533;-66
2024/02/02 04:31:43;;;;;;;16.53;5.97;;;;;;;;;;5014398;28;20572;-66
2024/02/02 04:34:10;;;;;;;9.20;5.20;;;;;;;;;;5014704;28;20473;-66
2024/02/02 04:36:37;;;;;;;16.00;6.03;;;;;;;;;;5014615;28;21012;-66
2024/02/02 04:39:06;;;;;;;14.70;5.03;;;;;;;;;;5014392;28;20538;-66
2024/02/02 04:41:33;;;;;;;21.63;6.00;;;;;;;;;;5014409;28;20450;-66
2024/02/02 04:44:00;;;;;;;23.50;6.00;;;;;;;;;;5014348;28;20480;-66
2024/02/02 04:46:26;;;;;;;15.13;5.67;;;;;;;;;;5013963;28;21017;-66
2024/02/02 04:48:53;;;;;;;12.53;5.30;;;;;;;;;;5014376;28;20446;-66
2024/02/02 04:51:20;;;;;;;14.87;4.70;;;;;;;;;;5014237;28;20532;-66
2024/02/02 04:53:47;;;;;;;16.63;4.80;;;;;;;;;;5014162;28;20456;-66
2024/02/02 04:56:15;;;;;;;18.43;5.33;;;;;;;;;;5014132;28;20533;-66
2024/02/02 04:58:42;;;;;;;19.00;6.20;;;;;;;;;;5013971;28;20537;-66
2024/02/02 05:01:09;;;;;;;11.53;4.63;;;;;;;;;;5013920;28;20966;-66
2024/02/02 05:03:36;;;;;;;12.57;5.33;;;;;;;;;;5014115;28;20453;-66
2024/02/02 05:06:03;;;;;;;19.60;5.13;;;;;;;;;;5013807;28;20452;-66
2024/02/02 05:08:30;;;;;;;13.45;5.90;;;;;;;;;;5013895;28;20450;-66
2024/02/02 05:10:57;;;;;;;11.10;4.80;;;;;;;;;;5013862;28;20305;-66
2024/02/02 05:13:25;;;;;;;12.37;4.60;;;;;;;;;;5013697;28;20560;-66
2024/02/02 05:15:52;;;;;;;17.35;5.25;;;;;;;;;;5013873;28;20532;-66
2024/02/02 05:18:19;;;;;;;10.97;4.60;;;;;;;;;;5013864;28;20187;-66
2024/02/02 05:20:48;;;;;;;15.87;4.90;;;;;;;;;;5013694;28;20445;-66
2024/02/02 05:23:15;;;;;;;7.83;4.60;;;;;;;;;;5013444;28;20926;-66
2024/02/02 05:25:43;;;;;;;17.43;6.23;;;;;;;;;;5013389;28;20474;-66
2024/02/02 05:28:10;;;;;;;17.53;4.70;;;;;;;;;;5013734;28;20453;-66
2024/02/02 05:30:38;;;;;;;12.63;4.43;;;;;;;;;;5013685;28;20478;-66
2024/02/02 05:33:05;;;;;;;19.13;5.23;;;;;;;;;;5013589;28;20482;-66
2024/02/02 05:35:32;;;;;;;16.37;4.87;;;;;;;;;;5013551;28;20537;-66
2024/02/02 05:38:00;;;;;;;17.87;5.70;;;;;;;;;;5013451;28;20482;-66
2024/02/02 05:40:27;;;;;;;15.70;4.70;;;;;;;;;;5013376;28;20461;-66
2024/02/02 05:42:54;;;;;;;11.27;4.50;;;;;;;;;;5013527;28;20455;-66
2024/02/02 05:45:21;;;;;;;13.67;5.20;;;;;;;;;;5013397;28;20633;-66
2024/02/02 05:47:49;;;;;;;12.37;4.47;;;;;;;;;;5013359;28;20441;-66
2024/02/02 05:50:16;;;;;;;22.40;6.30;;;;;;;;;;5013272;28;20988;-66
2024/02/02 05:52:43;;;;;;;14.03;5.10;;;;;;;;;;5013189;28;20513;-66
2024/02/02 05:55:10;;;;;;;8.35;3.90;;;;;;;;;;5013186;28;20446;-66
2024/02/02 05:57:36;;;;;;;11.23;3.90;;;;;;;;;;5012997;28;20618;-66
2024/02/02 06:00:04;;;;;;;8.73;5.27;;;;;;;;;;5012946;28;20542;-66
2024/02/02 06:02:31;;;;;;;16.07;4.20;;;;;;;;;;5013143;28;20450;-66
2024/02/02 06:04:59;;;;;;;15.43;4.60;;;;;;;;;;5013189;28;20541;-66
2024/02/02 06:07:26;;;;;;;13.90;5.20;;;;;;;;;;5013030;28;20541;-66
2024/02/02 06:09:53;;;;;;;15.07;5.60;;;;;;;;;;5012983;28;20446;-66
2024/02/02 06:12:20;;;;;;;11.20;5.90;;;;;;;;;;5013102;28;20485;-66
2024/02/02 06:14:47;;;;;;;11.07;4.63;;;;;;;;;;5013041;28;20442;-66
2024/02/02 06:17:14;;;;;;;11.30;4.43;;;;;;;;;;5012969;28;20442;-66
2024/02/02 06:19:41;;;;;;;13.83;4.27;;;;;;;;;;5012895;28;20557;-66
2024/02/02 06:22:09;;;;;;;15.33;5.40;;;;;;;;;;5012728;28;20441;-66
2024/02/02 06:24:36;;;;;;;13.90;4.03;;;;;;;;;;5013088;28;20443;-66
2024/02/02 06:27:03;;;;;;;17.30;3.80;;;;;;;;;;5012730;28;20476;-66
2024/02/02 06:29:34;;;;;;;8.10;4.00;;;;;;;;;;5012960;28;20442;-66
2024/02/02 06:32:01;;;;;;;10.07;3.53;;;;;;;;;;5012876;28;20514;-66
2024/02/02 06:34:28;;;;;;;24.13;4.90;;;;;;;;;;5012745;28;20457;-66
2024/02/02 06:36:55;;;;;;;10.53;4.20;;;;;;;;;;5012906;28;20500;-66
2024/02/02 06:39:23;;;;;;;9.37;4.37;;;;;;;;;;5012887;28;20446;-66
2024/02/02 06:41:50;;;;;;;12.17;4.47;;;;;;;;;;5012804;28;20454;-66
2024/02/02 06:44:18;;;;;;;17.17;4.53;;;;;;;;;;5012790;28;20826;-66
2024/02/02 06:46:45;;;;;;;10.20;3.87;;;;;;;;;;5012711;28;20457;-65
2024/02/02 06:49:12;;;;;;;20.53;4.07;;;;;;;;;;5012526;28;20581;-66
2024/02/02 06:51:38;;;;;;;12.40;3.80;;;;;;;;;;5012907;28;20474;-66
2024/02/02 06:54:06;;;;;;;10.40;4.80;;;;;;;;;;5013050;28;20532;-66
2024/02/02 06:56:36;;;;;;;8.77;3.60;;;;;;;;;;5012485;28;20514;-66
2024/02/02 06:59:03;;;;;;;14.80;5.10;;;;;;;;;;5012380;28;20457;-66
2024/02/02 07:01:30;;;;;;;17.30;4.13;;;;;;;;;;5012453;28;20533;-66
2024/02/02 07:03:57;;;;;;;10.80;3.67;;;;;;;;;;5012610;28;20940;-66
2024/02/02 07:06:24;;;;;;;14.43;4.63;;;;;;;;;;5012548;28;20453;-66
2024/02/02 07:08:52;;;;;;;12.97;3.33;;;;;;;;;;5012531;28;20540;-66
2024/02/02 07:11:31;;;;;;;12.03;3.43;;;;;;;;;;5015873;28;20448;-66
2024/02/02 07:14:01;;;;;;;13.70;4.37;;;;;;;;;;5015976;28;20458;-66
2024/02/02 07:16:30;;;;;;;11.10;4.23;;;;;;;;;;5015785;28;20446;-66
2024/02/02 07:18:57;;;;;;;6.10;3.03;;;;;;;;;;5016035;28;20596;-66
2024/02/02 07:21:26;;;;;;;11.20;4.27;;;;;;;;;;5015901;28;20890;-66
2024/02/02 07:23:54;;;;;;;16.00;3.53;;;;;;;;;;5016081;28;20536;-65
2024/02/02 07:26:26;;;;;;;8.23;4.13;;;;;;;;;;5015579;28;20481;-66
2024/02/02 07:28:53;;;;;;;10.13;4.03;;;;;;;;;;5015415;28;20533;-66
2024/02/02 07:31:35;;;;;;;11.40;3.40;;;;;;;;;;5015725;28;20529;-66
2024/02/02 07:34:04;;;;;;;10.70;3.47;;;;;;;;;;5015687;28;20455;-65
2024/02/02 07:36:32;;;;;;;14.10;4.20;;;;;;;;;;5015495;28;20512;-66
2024/02/02 07:38:59;;;;;;;13.77;3.63;;;;;;;;;;5015375;28;20542;-65
2024/02/02 07:41:27;;;;;;;8.73;3.13;;;;;;;;;;5015320;28;20537;-66
2024/02/02 07:43:54;;;;;;;16.40;4.30;;;;;;;;;;5015393;28;20454;-66
2024/02/02 07:46:22;;;;;;;19.93;4.43;;;;;;;;;;5015397;28;20473;-66
2024/02/02 07:48:51;;;;;;;16.67;4.60;;;;;;;;;;5015318;28;20446;-65
2024/02/02 07:51:18;;;;;;;16.10;4.47;;;;;;;;;;5015370;28;21009;-66
2024/02/02 07:53:45;;;;;;;11.53;3.70;;;;;;;;;;5015001;28;20485;-66
2024/02/02 07:56:12;;;;;;;15.20;4.03;;;;;;;;;;5015186;28;20520;-66
2024/02/02 07:58:40;;;;;;;10.53;4.00;;;;;;;;;;5015120;28;20457;-66
2024/02/02 08:01:07;;;;;;;11.93;4.33;;;;;;;;;;5014992;28;20446;-65
2024/02/02 08:03:34;;;;;;;14.13;4.50;;;;;;;;;;5014610;28;20540;-66
2024/02/02 08:06:02;;;;;;;7.33;4.43;;;;;;;;;;5014942;28;20541;-64
2024/02/02 08:08:31;;;;;;;9.27;3.37;;;;;;;;;;5014871;28;20442;-68
2024/02/02 08:10:59;;;;;;;14.13;3.93;;;;;;;;;;5014768;28;20477;-62
2024/02/02 08:13:26;;;;;;;8.90;3.73;;;;;;;;;;5014508;28;20482;-69
2024/02/02 08:15:53;;;;;;;18.37;5.50;;;;;;;;;;5014673;28;20450;-66
2024/02/02 08:18:20;;;;;;;12.50;4.00;;;;;;;;;;5014420;28;20454;-66
2024/02/02 08:20:47;;;;;;;16.43;4.87;;;;;;;;;;5013935;28;20453;-66
2024/02/02 08:23:15;;;;;;;15.50;6.00;;;;;;;;;;5014129;28;20446;-67
2024/02/02 08:25:42;;;;;;;12.50;4.83;;;;;;;;;;5014533;28;20905;-63
2024/02/02 08:28:09;;;;;;;8.57;4.33;;;;;;;;;;5014461;28;20533;-66
2024/02/02 08:30:36;;;;;;;17.20;5.20;;;;;;;;;;5014428;28;20458;-67
2024/02/02 08:33:03;;;;;;;14.20;4.73;;;;;;;;;;5014216;28;20481;-63
2024/02/02 08:35:32;;;;;;;6.97;4.33;;;;;;;;;;5014058;28;20453;-63
2024/02/02 08:37:59;;;;;;;12.40;4.60;;;;;;;;;;5014371;28;20446;-66
2024/02/02 08:40:32;;;;;;;17.03;5.13;;;;;;;;;;5014250;28;20538;-64
2024/02/02 08:42:59;;;;;;;12.20;4.90;;;;;;;;;;5014513;28;20537;-70
2024/02/02 08:45:51;;;;;;;19.60;6.07;;;;;;;;;;5014245;28;20442;-72
2024/02/02 08:48:25;;;;;;;11.20;5.20;;;;;;;;;;5014341;28;20589;-71
2024/02/02 08:50:52;;;;;;;16.83;5.43;;;;;;;;;;5014396;28;20976;-68
2024/02/02 08:53:19;;;;;;;13.33;4.87;;;;;;;;;;5013949;28;21005;-65
2024/02/02 08:55:49;;;;;;;16.73;5.20;;;;;;;;;;5014280;28;20450;-64
2024/02/02 08:58:19;;;;;;;18.67;6.00;;;;;;;;;;5013800;28;20453;-66
2024/02/02 09:00:49;;;;;;;18.90;5.27;;;;;;;;;;5014278;28;20532;-63
2024/02/02 09:03:24;;;;;;;18.63;6.47;;;;;;;;;;5013890;28;20450;-62
2024/02/02 09:05:55;;;;;;;15.77;5.93;;;;;;;;;;5013815;28;20450;-63
2024/02/02 09:08:27;;;;;;;16.63;5.37;;;;;;;;;;5013593;28;20942;-63
2024/02/02 09:11:11;;;;;;;13.87;5.10;;;;;;;;;;5013661;28;20520;-63
2024/02/02 09:13:40;;;;;;;11.70;5.00;;;;;;;;;;5013716;28;20516;-63
2024/02/02 09:16:07;;;;;;;16.93;5.43;;;;;;;;;;5013648;28;20450;-63
2024/02/02 09:18:36;;;;;;;14.80;5.77;;;;;;;;;;5013527;28;20448;-62
2024/02/02 09:21:03;;;;;;;15.20;5.80;;;;;;;;;;5013521;28;20453;-67
2024/02/02 09:23:32;;;;;;;12.97;5.30;;;;;;;;;;5013433;28;20454;-67
2024/02/02 09:26:00;;;;;;;13.67;5.37;;;;;;;;;;5013285;28;20576;-64
2024/02/02 09:28:38;;;;;;;15.97;5.53;;;;;;;;;;5013420;28;20529;-65
2024/02/02 09:31:06;;;;;;;20.27;5.00;;;;;;;;;;5013520;28;20934;-68
2024/02/02 09:33:44;;;;;;;18.50;5.90;;;;;;;;;;5012372;28;20481;-62
2024/02/02 09:36:12;;;;;;;17.20;5.43;;;;;;;;;;5013316;28;20984;-65
2024/02/02 09:38:39;;;;;;;9.53;4.40;;;;;;;;;;5013541;28;20537;-63
2024/02/02 09:41:19;;;;;;;8.77;4.63;;;;;;;;;;5013329;28;20529;-62
2024/02/02 09:43:49;;;;;;;11.73;5.40;;;;;;;;;;5013199;28;20532;-67
2024/02/02 09:46:20;;;;;;;8.17;4.80;;;;;;;;;;5013049;28;20454;-65
2024/02/02 09:48:52;;;;;;;21.17;5.53;;;;;;;;;;5013194;28;20446;-67
2024/02/02 09:51:28;;;;;;;11.93;4.60;;;;;;;;;;5013164;28;20540;-64
2024/02/02 09:54:03;;;;;;;7.90;4.70;;;;;;;;;;5012784;28;20481;-67
2024/02/02 09:56:38;;;;;;;12.40;4.13;;;;;;;;;;5013084;28;20450;-67
2024/02/02 09:59:07;;;;;;;11.63;5.40;;;;;;;;;;5012933;28;20883;-64
2024/02/02 10:01:45;;;;;;;9.10;4.60;;;;;;;;;;5013085;28;20449;-63
2024/02/02 10:04:17;;;;;;;14.30;4.77;;;;;;;;;;5013017;28;20452;-66
2024/02/02 10:06:46;;;;;;;11.53;5.03;;;;;;;;;;5012907;28;20541;-64
2024/02/02 10:09:22;;;;;;;8.40;4.30;;;;;;;;;;5012681;28;20533;-59
2024/02/02 10:12:05;;;;;;;9.13;4.20;;;;;;;;;;5013055;28;20888;-64
2024/02/02 10:14:55;;;;;;;13.70;4.57;;;;;;;;;;5019684;28;20478;-65
2024/02/02 10:17:30;;;;;;;8.63;4.10;;;;;;;;;;5004446;28;20524;-67
2024/02/02 10:20:09;;;;;;;7.10;3.43;;;;;;;;;;5032671;28;20936;-65
2024/02/02 10:22:53;;;;;;;9.20;4.10;;;;;;;;;;5032743;28;20453;-65
2024/02/02 10:25:27;;;;;;;10.20;4.83;;;;;;;;;;5031976;28;20469;-67
2024/02/02 10:28:06;;;;;;;12.00;3.90;;;;;;;;;;5032253;28;20973;-65
2024/02/02 10:30:38;;;;;;;13.40;4.20;;;;;;;;;;5032307;28;20441;-67
2024/02/02 10:33:18;;;;;;;8.40;4.40;;;;;;;;;;5032190;28;20476;-67
2024/02/02 10:35:50;;;;;;;9.10;4.60;;;;;;;;;;5032243;28;20875;-65
2024/02/02 10:38:20;;;;;;;6.77;3.90;;;;;;;;;;5032318;28;20905;-65
2024/02/02 10:40:52;;;;;;;8.40;3.50;;;;;;;;;;5032397;28;20543;-65
2024/02/02 10:43:30;;;;;;;5.47;3.23;;;;;;;;;;5032535;28;20449;-64
2024/02/02 10:46:17;;;;;;;6.53;4.10;;;;;;;;;;5035207;28;20441;-63
2024/02/02 10:48:57;;;;;;;7.20;3.17;;;;;;;;;;5029422;28;20532;-62
2024/02/02 10:51:29;;;;;;;5.70;3.17;;;;;;;;;;5035905;28;20539;-63
2024/02/02 10:54:02;;;;;;;8.70;4.13;;;;;;;;;;5035786;28;20917;-65
2024/02/02 10:56:32;;;;;;;9.13;4.10;;;;;;;;;;5035814;28;20484;-67
2024/02/02 10:59:06;;;;;;;10.27;5.80;;;;;;;;;;5035625;28;20539;-63
2024/02/02 11:01:39;;;;;;;7.97;4.20;;;;;;;;;;5035622;28;20446;-63
2024/02/02 11:04:11;;;;;;;6.53;3.67;;;;;;;;;;5035647;28;20983;-63
2024/02/02 11:06:44;;;;;;;4.90;3.20;;;;;;;;;;5035789;28;20448;-63
2024/02/02 11:09:15;;;;;;;6.30;3.47;;;;;;;;;;5035679;28;20444;-63
2024/02/02 11:11:45;;;;;;;7.97;3.80;;;;;;;;;;5035699;28;20472;-63
2024/02/02 11:14:19;;;;;;;8.37;3.13;;;;;;;;;;5035712;28;20508;-64
2024/02/02 11:16:51;;;;;;;11.57;4.20;;;;;;;;;;5035660;28;20445;-63
2024/02/02 11:19:20;;;;;;;8.83;4.20;;;;;;;;;;5031327;28;20445;-63
2024/02/02 11:22:02;;;;;;;10.17;6.43;;;;;;;;;;5025489;28;20500;-63
2024/02/02 11:24:35;;;;;;;5.43;3.10;;;;;;;;;;5034946;28;20864;-63
2024/02/02 11:27:05;;;;;;;6.17;3.17;;;;;;;;;;5035079;28;20473;-63
2024/02/02 11:29:44;;;;;;;5.43;3.30;;;;;;;;;;5034859;28;20532;-63
2024/02/02 11:32:25;;;;;;;5.70;2.87;;;;;;;;;;5035567;28;20453;-63
2024/02/02 11:34:57;;;;;;;9.57;3.40;;;;;;;;;;5035494;28;20567;-63
2024/02/02 11:37:31;;;;;;;4.70;2.87;;;;;;;;;;5035461;28;20477;-63
2024/02/02 11:39:59;;;;;;;6.40;3.47;;;;;;;;;;5035196;28;20547;-63
2024/02/02 11:42:27;;;;;;;9.93;2.90;;;;;;;;;;5035023;28;20460;-63
2024/02/02 11:44:56;;;;;;;8.93;3.97;;;;;;;;;;5035053;28;20544;-64
2024/02/02 11:47:24;;;;;;;9.93;3.63;;;;;;;;;;5035283;28;20454;-63
2024/02/02 11:49:54;;;;;;;7.27;3.53;;;;;;;;;;5035052;28;20528;-63
2024/02/02 11:52:23;;;;;;;9.57;3.37;;;;;;;;;;5035134;28;20691;-63
2024/02/02 11:54:53;;;;;;;7.70;3.43;;;;;;;;;;5035003;28;20500;-63
2024/02/02 11:57:23;;;;;;;9.43;3.70;;;;;;;;;;5033862;28;20453;-63
2024/02/02 11:59:52;;;;;;;13.57;4.50;;;;;;;;;;5035017;28;20891;-63
2024/02/02 12:02:44;;;;;;;10.83;3.53;;;;;;;;;;5034809;28;20453;-64
2024/02/02 12:05:15;;;;;;;6.10;3.47;;;;;;;;;;5034995;28;20476;-63
2024/02/02 12:07:45;;;;;;;9.23;3.27;;;;;;;;;;5034550;28;20536;-63
2024/02/02 12:10:13;;;;;;;11.63;4.30;;;;;;;;;;5034894;28;20529;-63
2024/02/02 12:12:43;;;;;;;9.07;4.10;;;;;;;;;;5034961;28;20515;-63
2024/02/02 12:15:10;;;;;;;6.37;3.90;;;;;;;;;;5034555;28;20508;-63
2024/02/02 12:17:39;;;;;;;9.10;4.60;;;;;;;;;;5034986;28;20453;-63
2024/02/02 12:20:07;;;;;;;9.10;4.20;;;;;;;;;;5034495;28;20461;-63
2024/02/02 12:22:35;;;;;;;8.90;4.10;;;;;;;;;;5034394;28;20445;-64
2024/02/02 12:25:04;;;;;;;9.17;5.23;;;;;;;;;;5034381;28;20616;-64
2024/02/02 12:27:31;;;;;;;9.80;5.00;;;;;;;;;;5034794;28;20485;-64
2024/02/02 12:29:58;;;;;;;9.10;4.40;;;;;;;;;;5034380;28;20453;-63
2024/02/02 12:32:24;;;;;;;7.60;5.13;;;;;;;;;;5034333;28;20644;-63
2024/02/02 12:34:53;;;;;;;7.70;4.50;;;;;;;;;;5034161;28;20573;-64
2024/02/02 12:37:20;;;;;;;9.67;4.30;;;;;;;;;;5034267;28;20457;-64
2024/02/02 12:39:49;;;;;;;8.00;3.77;;;;;;;;;;5034388;28;20527;-64
2024/02/02 12:42:16;;;;;;;10.00;4.63;;;;;;;;;;5034147;28;20448;-64
2024/02/02 12:44:43;;;;;;;13.30;4.37;;;;;;;;;;5034123;28;20448;-63
2024/02/02 12:47:10;;;;;;;10.60;4.53;;;;;;;;;;5033832;28;20530;-64
2024/02/02 12:49:37;;;;;;;12.37;5.30;;;;;;;;;;5033674;28;20528;-63
2024/02/02 12:52:06;;;;;;;9.70;4.77;;;;;;;;;;5033797;28;20451;-64
2024/02/02 12:54:33;;;;;;;10.13;5.30;;;;;;;;;;5033634;28;20485;-64
2024/02/02 12:57:00;;;;;;;10.50;5.30;;;;;;;;;;5033063;28;20477;-63
2024/02/02 12:59:27;;;;;;;15.63;5.20;;;;;;;;;;5033645;28;20446;-63
2024/02/02 13:01:54;;;;;;;9.00;4.10;;;;;;;;;;5033696;28;20528;-63
2024/02/02 13:04:21;;;;;;;8.57;4.70;;;;;;;;;;5033663;28;20453;-64
2024/02/02 13:06:49;;;;;;;8.27;4.50;;;;;;;;;;5033710;28;20532;-64
2024/02/02 13:09:19;;;;;;;9.50;4.20;;;;;;;;;;5033664;28;20464;-63
2024/02/02 13:11:47;;;;;;;15.23;4.77;;;;;;;;;;5033457;28;20449;-63
2024/02/02 13:14:14;;;;;;;14.20;4.20;;;;;;;;;;5033426;28;20488;-63
2024/02/02 13:16:41;;;;;;;10.87;4.80;;;;;;;;;;5033581;28;20484;-63
2024/02/02 13:19:23;;;;;;;10.43;4.73;;;;;;;;;;5033501;28;20449;-63
2024/02/02 13:21:50;;;;;;;10.93;4.33;;;;;;;;;;5032602;28;20520;-64
2024/02/02 13:24:18;;;;;;;14.20;5.20;;;;;;;;;;5033333;28;20885;-63
2024/02/02 13:26:50;;;;;;;21.57;4.80;;;;;;;;;;5033182;28;20996;-63
2024/02/02 13:29:25;;;;;;;8.00;4.73;;;;;;;;;;5033172;28;20580;-63
2024/02/02 13:31:52;;;;;;;8.30;4.60;;;;;;;;;;5033317;28;20444;-63
2024/02/02 13:34:19;;;;;;;16.53;5.70;;;;;;;;;;5033143;28;20509;-63
2024/02/02 13:36:47;;;;;;;10.00;5.63;;;;;;;;;;5033230;28;20455;-63
2024/02/02 13:39:19;;;;;;;11.03;5.20;;;;;;;;;;5033134;28;20445;-63
2024/02/02 13:41:47;;;;;;;16.03;5.63;;;;;;;;;;5033007;28;20446;-63
2024/02/02 13:44:16;;;;;;;10.97;4.50;;;;;;;;;;5033162;28;20497;-63
2024/02/02 13:46:45;;;;;;;11.73;5.40;;;;;;;;;;5033056;28;20458;-64
2024/02/02 13:49:21;;;;;;;11.00;5.10;;;;;;;;;;5033030;28;20471;-63
2024/02/02 13:51:48;;;;;;;13.13;4.50;;;;;;;;;;5033084;28;20536;-63
2024/02/02 13:54:17;;;;;;;10.70;5.17;;;;;;;;;;5032721;28;20976;-63
2024/02/02 13:56:45;;;;;;;8.30;5.07;;;;;;;;;;5032977;28;20452;-63
2024/02/02 13:59:18;;;;;;;11.67;5.80;;;;;;;;;;5032691;28;21015;-63
2024/02/02 14:01:46;;;;;;;17.63;5.60;;;;;;;;;;5033035;28;20449;-63
2024/02/02 14:04:13;;;;;;;14.80;5.90;;;;;;;;;;5032829;28;20449;-63
2024/02/02 14:06:40;;;;;;;9.07;4.77;;;;;;;;;;5032554;28;20806;-64
2024/02/02 14:09:08;;;;;;;20.23;6.60;;;;;;;;;;5032662;28;21035;-63
2024/02/02 14:11:35;;;;;;;12.70;5.07;;;;;;;;;;5032924;28;20813;-63
2024/02/02 14:14:03;;;;;;;14.50;4.80;;;;;;;;;;5032770;28;20916;-63
2024/02/02 14:16:31;;;;;;;13.20;5.23;;;;;;;;;;5032752;28;20452;-63
2024/02/02 14:18:59;;;;;;;14.30;5.67;;;;;;;;;;5032726;28;20449;-63
2024/02/02 14:21:29;;;;;;;12.13;4.20;;;;;;;;;;5036697;28;20453;-63
2024/02/02 14:24:05;;;;;;;11.43;5.00;;;;;;;;;;5036856;28;20880;-63
2024/02/02 14:26:32;;;;;;;10.70;5.17;;;;;;;;;;5036572;28;20492;-63
2024/02/02 14:28:59;;;;;;;12.03;5.73;;;;;;;;;;5036586;28;20537;-63
2024/02/02 14:31:27;;;;;;;15.83;5.10;;;;;;;;;;5036911;28;20492;-63
2024/02/02 14:33:55;;;;;;;14.00;4.90;;;;;;;;;;5036397;28;20483;-64
2024/02/02 14:36:22;;;;;;;9.03;5.10;;;;;;;;;;5036951;28;20532;-64
2024/02/02 14:38:49;;;;;;;14.70;5.37;;;;;;;;;;5036612;28;20596;-63
2024/02/02 14:41:16;;;;;;;11.10;4.47;;;;;;;;;;5036408;28;20545;-64
2024/02/02 14:43:43;;;;;;;12.33;5.20;;;;;;;;;;5036387;28;20451;-63